Time;durP1;ratioP1;P1;durP2;ratioP2;P2;SDS_P1;SDS_P2;PMS_P1;PMS_P2;Temp;Humidity;BMP_temperature;BMP_pressure;BME280_temperature;BME280_humidity;BME280_pressure;Samples;Min_cycle;Max_cycle;Signal;HPM_P1;HPM_P2
2021/12/08 00:01:07;;;;;;;0.73;0.43;;;4.80;99.90;;;;;;4991077;28;20179;-74
2021/12/08 00:03:33;;;;;;;0.30;0.30;;;4.80;99.90;;;;;;4991515;28;20203;-73
2021/12/08 00:05:59;;;;;;;0.10;0.10;;;4.70;99.90;;;;;;4993462;28;20548;-73
2021/12/08 00:08:28;;;;;;;0.20;0.20;;;4.60;99.90;;;;;;4994693;28;20559;-73
2021/12/08 00:13:26;;;;;;;0.80;0.80;;;4.40;99.90;;;;;;4994434;28;20273;-73
2021/12/08 00:15:55;;;;;;;0.00;0.00;;;4.40;99.90;;;;;;4994101;28;20574;-72
2021/12/08 00:18:25;;;;;;;0.00;0.00;;;4.40;99.90;;;;;;4994645;28;20560;-72
2021/12/08 00:20:54;;;;;;;0.00;0.00;;;4.40;99.90;;;;;;4993932;28;20728;-73
2021/12/08 00:23:24;;;;;;;0.00;0.00;;;4.30;99.90;;;;;;4994146;28;20551;-72
2021/12/08 00:25:50;;;;;;;0.27;0.27;;;4.30;99.90;;;;;;4993844;28;20251;-72
2021/12/08 00:28:16;;;;;;;0.03;0.03;;;4.40;99.90;;;;;;4994120;28;20175;-72
2021/12/08 00:30:45;;;;;;;0.10;0.10;;;4.30;99.90;;;;;;4976758;28;20210;-73
2021/12/08 00:33:12;;;;;;;0.10;0.10;;;4.40;99.90;;;;;;4995125;28;20183;-72
2021/12/08 00:35:40;;;;;;;0.10;0.10;;;4.40;99.90;;;;;;5002461;28;20701;-72
2021/12/08 00:38:06;;;;;;;5.93;1.40;;;4.50;99.90;;;;;;5013286;28;20218;-72
2021/12/08 00:40:32;;;;;;;1.60;1.47;;;4.60;99.90;;;;;;5015791;28;20537;-72
2021/12/08 00:42:58;;;;;;;0.63;0.63;;;4.70;99.90;;;;;;5006761;28;20210;-73
2021/12/08 00:45:25;;;;;;;0.30;0.30;;;4.80;99.90;;;;;;4994371;28;20727;-73
2021/12/08 00:47:52;;;;;;;0.10;0.10;;;4.80;99.90;;;;;;4993835;28;20188;-73
2021/12/08 00:50:19;;;;;;;5.00;2.40;;;4.90;99.90;;;;;;4993426;28;20198;-73
2021/12/08 00:52:45;;;;;;;5.50;0.47;;;5.00;99.90;;;;;;4993977;28;20190;-73
2021/12/08 00:55:15;;;;;;;1.70;1.30;;;5.10;99.90;;;;;;4993745;28;20306;-73
2021/12/08 00:57:41;;;;;;;0.00;0.00;;;5.20;99.90;;;;;;4975980;28;20198;-73
2021/12/08 01:00:14;;;;;;;0.50;0.50;;;5.20;99.90;;;;;;4993489;28;20178;-72
2021/12/08 01:02:39;;;;;;;0.00;0.00;;;5.20;99.90;;;;;;4993518;28;20210;-73
2021/12/08 01:05:07;;;;;;;3.13;1.43;;;5.20;99.90;;;;;;4975967;28;20199;-73
2021/12/08 01:07:33;;;;;;;0.00;0.00;;;5.20;99.90;;;;;;4993403;28;20187;-72
2021/12/08 01:09:59;;;;;;;0.00;0.00;;;5.30;99.90;;;;;;4993267;28;20242;-73
2021/12/08 01:12:24;;;;;;;0.97;0.97;;;5.30;99.90;;;;;;4993232;28;20221;-72
2021/12/08 01:14:50;;;;;;;0.00;0.00;;;5.30;99.90;;;;;;4993388;28;20236;-73
2021/12/08 01:17:15;;;;;;;0.10;0.10;;;5.30;99.90;;;;;;4991730;28;20190;-73
2021/12/08 01:19:41;;;;;;;0.20;0.20;;;5.30;99.90;;;;;;4993375;28;20190;-72
2021/12/08 01:22:06;;;;;;;0.00;0.00;;;5.30;99.90;;;;;;4992984;28;20225;-73
2021/12/08 01:24:32;;;;;;;1.50;1.40;;;5.30;99.90;;;;;;4993034;28;20242;-72
2021/12/08 01:26:58;;;;;;;0.00;0.00;;;5.40;99.90;;;;;;4992909;28;20263;-73
2021/12/08 01:29:24;;;;;;;0.83;0.47;;;5.40;99.90;;;;;;4993036;28;20183;-72
2021/12/08 01:31:49;;;;;;;0.00;0.00;;;5.30;99.90;;;;;;4993112;28;20603;-73
2021/12/08 01:34:15;;;;;;;0.00;0.00;;;5.30;99.90;;;;;;4992891;28;20290;-74
2021/12/08 01:36:41;;;;;;;0.00;0.00;;;5.40;99.90;;;;;;5006198;28;20210;-74
2021/12/08 01:39:08;;;;;;;0.10;0.10;;;5.40;99.90;;;;;;4993011;28;20187;-74
2021/12/08 01:41:34;;;;;;;0.30;0.30;;;5.50;99.90;;;;;;4975597;28;20306;-74
2021/12/08 01:46:46;;;;;;;0.40;0.40;;;5.40;99.90;;;;;;4992934;28;20273;-74
2021/12/08 01:49:12;;;;;;;0.00;0.00;;;5.50;99.90;;;;;;5005920;28;20663;-74
2021/12/08 01:51:38;;;;;;;0.00;0.00;;;5.50;99.90;;;;;;5012681;28;20230;-73
2021/12/08 01:54:06;;;;;;;0.17;0.17;;;5.50;99.90;;;;;;5012063;28;20635;-73
2021/12/08 01:56:33;;;;;;;0.00;0.00;;;5.50;99.90;;;;;;5012044;28;20182;-74
2021/12/08 01:59:01;;;;;;;0.10;0.10;;;5.50;99.90;;;;;;5012008;28;20182;-73
2021/12/08 02:01:30;;;;;;;0.10;0.10;;;5.60;99.90;;;;;;5011990;28;20194;-73
2021/12/08 02:03:56;;;;;;;0.00;0.00;;;5.60;99.90;;;;;;5012245;28;20202;-74
2021/12/08 02:06:23;;;;;;;0.20;0.20;;;5.60;99.90;;;;;;4994195;28;20675;-74
2021/12/08 02:08:51;;;;;;;0.43;0.43;;;5.50;99.90;;;;;;5012065;28;20217;-74
2021/12/08 02:11:19;;;;;;;0.00;0.00;;;5.50;99.90;;;;;;5011632;28;20807;-73
2021/12/08 02:13:45;;;;;;;0.00;0.00;;;5.50;99.90;;;;;;5011963;28;20202;-74
2021/12/08 02:16:14;;;;;;;0.00;0.00;;;5.50;99.90;;;;;;4994012;28;20189;-74
2021/12/08 02:18:42;;;;;;;0.10;0.10;;;5.50;99.90;;;;;;5011846;28;20269;-73
2021/12/08 02:21:27;;;;;;;0.00;0.00;;;5.50;99.90;;;;;;5011701;28;20194;-74
2021/12/08 02:23:54;;;;;;;0.00;0.00;;;5.50;99.90;;;;;;4993944;28;20214;-74
2021/12/08 02:26:19;;;;;;;0.00;0.00;;;5.50;99.90;;;;;;4993827;28;20202;-74
2021/12/08 02:28:46;;;;;;;0.07;0.07;;;5.50;99.90;;;;;;5011248;28;20182;-74
2021/12/08 02:31:15;;;;;;;0.00;0.00;;;5.50;99.90;;;;;;5011614;28;20209;-74
2021/12/08 02:49:48;;;;;;;0.10;0.10;;;5.70;99.90;;;;;;4991295;28;20640;-73
2021/12/08 02:52:15;;;;;;;0.47;0.47;;;5.70;99.90;;;;;;4991675;28;20681;-72
2021/12/08 02:54:45;;;;;;;0.00;0.00;;;5.80;99.90;;;;;;4974272;28;20207;-73
2021/12/08 02:57:11;;;;;;;0.30;0.30;;;5.80;99.90;;;;;;5003720;28;20194;-73
2021/12/08 02:59:38;;;;;;;0.13;0.13;;;5.80;99.90;;;;;;5011275;28;20190;-72
2021/12/08 03:02:05;;;;;;;0.00;0.00;;;5.70;99.90;;;;;;4993626;28;20229;-72
2021/12/08 03:04:31;;;;;;;0.07;0.07;;;5.80;99.90;;;;;;5011244;28;20198;-72
2021/12/08 03:06:57;;;;;;;1.07;0.97;;;5.80;99.90;;;;;;5010978;28;20178;-72
2021/12/08 03:09:22;;;;;;;0.10;0.10;;;5.90;99.90;;;;;;5010735;28;20216;-71
2021/12/08 03:11:50;;;;;;;0.10;0.10;;;5.80;99.90;;;;;;4993648;28;20214;-73
2021/12/08 03:14:17;;;;;;;0.00;0.00;;;5.90;99.90;;;;;;5010978;28;20198;-72
2021/12/08 03:16:46;;;;;;;0.10;0.10;;;5.90;99.90;;;;;;5011083;28;20186;-72
2021/12/08 03:19:12;;;;;;;0.83;0.60;;;5.80;99.90;;;;;;5011036;28;20665;-72
2021/12/08 03:21:39;;;;;;;0.00;0.00;;;5.90;99.90;;;;;;5010781;28;20206;-72
2021/12/08 03:26:45;;;;;;;0.10;0.10;;;5.80;99.90;;;;;;5011583;28;20675;-73
2021/12/08 03:29:21;;;;;;;0.00;0.00;;;5.80;99.90;;;;;;4993374;28;20217;-73
2021/12/08 03:31:50;;;;;;;0.10;0.10;;;5.90;99.90;;;;;;5010999;28;20532;-72
2021/12/08 03:34:19;;;;;;;0.00;0.00;;;5.90;99.90;;;;;;5010777;28;20194;-72
2021/12/08 03:36:45;;;;;;;0.10;0.10;;;5.90;99.90;;;;;;5010571;28;20201;-73
2021/12/08 03:39:10;;;;;;;0.30;0.30;;;5.90;99.90;;;;;;5010971;28;20663;-73
2021/12/08 03:41:36;;;;;;;0.00;0.00;;;5.90;99.90;;;;;;5014442;28;20292;-73
2021/12/08 03:44:03;;;;;;;0.23;0.23;;;5.90;99.90;;;;;;5004008;28;20199;-73
2021/12/08 03:46:31;;;;;;;0.00;0.00;;;5.90;99.90;;;;;;4994644;28;20271;-73
2021/12/08 03:48:59;;;;;;;0.43;0.43;;;5.90;99.90;;;;;;4994230;28;20190;-73
2021/12/08 03:51:24;;;;;;;0.00;0.00;;;5.90;99.90;;;;;;4994885;28;20552;-73
2021/12/08 03:53:50;;;;;;;0.10;0.10;;;5.80;99.90;;;;;;4977376;28;20214;-73
2021/12/08 03:56:16;;;;;;;0.00;0.00;;;5.80;99.90;;;;;;4994498;28;20187;-73
2021/12/08 03:58:41;;;;;;;0.00;0.00;;;5.80;99.90;;;;;;4994861;28;20189;-73
2021/12/08 04:01:07;;;;;;;0.10;0.10;;;5.80;99.90;;;;;;4994673;28;20183;-73
2021/12/08 04:03:34;;;;;;;4.80;1.50;;;5.80;99.90;;;;;;4994457;28;20219;-73
2021/12/08 04:06:06;;;;;;;0.00;0.00;;;5.80;99.90;;;;;;4994376;28;20544;-73
2021/12/08 04:08:53;;;;;;;0.40;0.40;;;5.90;99.90;;;;;;4977287;28;20575;-73
2021/12/08 04:11:18;;;;;;;0.00;0.00;;;5.90;99.90;;;;;;4994281;28;20199;-73
2021/12/08 04:13:48;;;;;;;0.20;0.20;;;5.90;99.90;;;;;;4994544;28;20279;-73
2021/12/08 04:16:21;;;;;;;0.10;0.10;;;5.90;99.90;;;;;;4994367;28;20187;-73
2021/12/08 04:18:46;;;;;;;3.27;1.10;;;5.90;99.90;;;;;;4994444;28;20689;-73
2021/12/08 04:21:15;;;;;;;0.40;0.40;;;5.90;99.90;;;;;;4994553;28;20182;-73
2021/12/08 04:23:42;;;;;;;12.00;0.93;;;6.00;99.90;;;;;;4993924;28;20219;-72
2021/12/08 04:26:12;;;;;;;0.10;0.10;;;6.10;99.90;;;;;;4994076;28;20190;-72
2021/12/08 04:28:38;;;;;;;0.00;0.00;;;6.10;99.90;;;;;;4994342;28;20218;-73
2021/12/08 04:31:21;;;;;;;0.50;0.50;;;6.20;99.90;;;;;;4994130;28;20233;-73
2021/12/08 04:33:52;;;;;;;0.17;0.17;;;6.10;99.90;;;;;;4994321;28;20222;-73
2021/12/08 04:36:18;;;;;;;0.10;0.10;;;6.10;99.90;;;;;;5007664;28;20182;-74
2021/12/08 04:38:49;;;;;;;0.10;0.10;;;6.10;99.90;;;;;;5013727;28;20269;-72
2021/12/08 04:41:19;;;;;;;0.03;0.03;;;6.10;99.90;;;;;;5013720;28;20317;-72
2021/12/08 04:44:01;;;;;;;0.10;0.10;;;6.00;99.90;;;;;;5005247;28;20283;-72
2021/12/08 04:47:00;;;;;;;0.20;0.20;;;6.10;99.90;;;;;;4993731;28;20730;-72
2021/12/08 04:52:36;;;;;;;0.57;0.57;;;6.10;99.90;;;;;;4993593;28;20229;-72
2021/12/08 05:08:41;;;;;;;0.00;0.00;;;5.70;99.90;;;;;;4977642;28;20286;-72
2021/12/08 05:11:15;;;;;;;0.03;0.03;;;5.50;99.90;;;;;;4993115;28;20175;-72
2021/12/08 05:13:43;;;;;;;0.00;0.00;;;5.40;99.90;;;;;;4993376;28;20198;-72
2021/12/08 05:16:14;;;;;;;0.53;0.50;;;5.50;99.90;;;;;;4975672;28;20659;-72
2021/12/08 05:18:44;;;;;;;0.00;0.00;;;5.50;99.90;;;;;;4993412;28;20616;-72
2021/12/08 05:21:20;;;;;;;0.00;0.00;;;5.60;99.90;;;;;;4993646;28;20187;-73
2021/12/08 05:24:05;;;;;;;0.00;0.00;;;5.60;99.90;;;;;;4975534;28;20218;-73
2021/12/08 05:26:48;;;;;;;0.00;0.00;;;5.60;99.90;;;;;;4992863;28;20175;-73
2021/12/08 05:29:19;;;;;;;1.60;1.03;;;5.50;99.90;;;;;;4993209;28;20179;-73
2021/12/08 05:31:44;;;;;;;0.30;0.30;;;5.50;99.90;;;;;;4993129;28;20183;-73
2021/12/08 05:34:10;;;;;;;0.27;0.27;;;5.40;99.90;;;;;;4993008;28;20600;-72
2021/12/08 05:36:37;;;;;;;0.10;0.10;;;5.40;99.90;;;;;;4991597;28;20202;-73
2021/12/08 05:39:07;;;;;;;0.00;0.00;;;5.30;99.90;;;;;;5012402;28;20186;-73
2021/12/08 05:41:35;;;;;;;0.20;0.20;;;5.40;99.90;;;;;;5012827;28;20560;-73
2021/12/08 05:44:02;;;;;;;1.17;1.17;;;5.40;99.90;;;;;;4992876;28;20202;-73
2021/12/08 05:46:31;;;;;;;0.27;0.27;;;5.40;99.90;;;;;;4992594;28;20179;-73
2021/12/08 05:48:57;;;;;;;0.00;0.00;;;5.40;99.90;;;;;;4992191;28;20234;-73
2021/12/08 05:51:34;;;;;;;0.00;0.00;;;5.40;99.90;;;;;;4975131;28;20183;-73
2021/12/08 05:54:06;;;;;;;0.10;0.10;;;5.40;99.90;;;;;;4992769;28;20199;-72
2021/12/08 05:56:33;;;;;;;1.13;1.13;;;5.40;99.90;;;;;;4992489;28;20641;-73
2021/12/08 05:59:01;;;;;;;0.00;0.00;;;5.40;99.90;;;;;;4992557;28;20179;-73
2021/12/08 06:01:51;;;;;;;0.10;0.10;;;5.40;99.90;;;;;;4992384;28;20641;-73
2021/12/08 06:04:17;;;;;;;0.07;0.07;;;5.40;99.90;;;;;;4992147;28;20195;-73
2021/12/08 06:06:45;;;;;;;10.73;2.87;;;5.30;99.90;;;;;;4992263;28;20186;-73
2021/12/08 06:09:12;;;;;;;0.00;0.00;;;5.30;99.90;;;;;;4992473;28;20187;-73
2021/12/08 06:11:38;;;;;;;0.00;0.00;;;5.20;99.90;;;;;;4991743;28;20278;-73
2021/12/08 06:14:07;;;;;;;0.40;0.40;;;5.20;99.90;;;;;;4992258;28;20207;-73
2021/12/08 06:16:36;;;;;;;0.10;0.10;;;5.00;99.90;;;;;;4991924;28;20624;-73
2021/12/08 06:19:03;;;;;;;0.00;0.00;;;5.00;99.90;;;;;;4992394;28;20198;-73
2021/12/08 06:21:30;;;;;;;0.30;0.30;;;5.10;99.90;;;;;;4974265;28;20611;-72
2021/12/08 06:23:57;;;;;;;0.00;0.00;;;5.20;99.90;;;;;;4992006;28;20219;-74
2021/12/08 06:26:26;;;;;;;0.10;0.10;;;5.20;99.90;;;;;;4974226;28;20185;-73
2021/12/08 06:28:53;;;;;;;8.20;1.83;;;5.30;99.90;;;;;;4990784;28;20187;-73
2021/12/08 06:31:21;;;;;;;0.33;0.33;;;5.30;99.90;;;;;;4992229;28;20183;-73
2021/12/08 06:33:47;;;;;;;0.50;0.50;;;5.30;99.90;;;;;;4975645;28;20225;-73
2021/12/08 06:36:21;;;;;;;6.27;0.90;;;5.30;99.90;;;;;;5003814;28;20185;-73
2021/12/08 06:38:48;;;;;;;0.00;0.00;;;5.30;99.90;;;;;;4993813;28;20218;-73
2021/12/08 06:41:25;;;;;;;0.00;0.00;;;5.30;99.90;;;;;;4994009;28;20205;-73
2021/12/08 06:43:55;;;;;;;0.10;0.10;;;5.30;99.90;;;;;;5002127;28;20282;-73
2021/12/08 06:46:21;;;;;;;0.20;0.20;;;5.30;99.90;;;;;;4991741;28;20171;-73
2021/12/08 06:48:52;;;;;;;2.63;2.00;;;5.40;99.90;;;;;;4990175;28;20179;-72
2021/12/08 06:51:25;;;;;;;0.10;0.10;;;5.50;99.90;;;;;;4974419;28;20174;-73
2021/12/08 06:53:56;;;;;;;0.20;0.20;;;5.50;99.90;;;;;;4991770;28;20199;-73
2021/12/08 06:56:29;;;;;;;1.17;1.07;;;5.50;99.90;;;;;;4991760;28;20193;-73
2021/12/08 06:58:58;;;;;;;1.80;1.70;;;5.50;99.90;;;;;;4991817;28;20202;-73
2021/12/08 07:01:44;;;;;;;1.03;1.03;;;5.40;99.90;;;;;;4991493;28;20218;-74
2021/12/08 07:07:09;;;;;;;0.20;0.20;;;5.10;99.90;;;;;;4991753;28;20675;-71
2021/12/08 07:09:55;;;;;;;0.00;0.00;;;5.00;99.90;;;;;;4991608;28;20237;-72
2021/12/08 07:12:35;;;;;;;1.40;1.23;;;4.90;99.90;;;;;;4991653;28;20270;-72
2021/12/08 07:15:08;;;;;;;0.00;0.00;;;4.80;99.90;;;;;;4994572;28;20635;-71
2021/12/08 07:17:37;;;;;;;0.00;0.00;;;4.70;99.90;;;;;;4995303;28;20597;-72
2021/12/08 07:22:53;;;;;;;0.00;0.00;;;4.50;99.90;;;;;;4995569;28;20226;-74
2021/12/08 07:25:24;;;;;;;0.10;0.10;;;4.40;99.90;;;;;;4995244;28;20223;-74
2021/12/08 07:27:50;;;;;;;0.20;0.20;;;4.40;99.90;;;;;;4994851;28;20174;-74
2021/12/08 07:30:25;;;;;;;0.40;0.40;;;4.40;99.90;;;;;;4995289;28;20237;-73
2021/12/08 07:32:51;;;;;;;0.57;0.57;;;4.50;99.90;;;;;;4995314;28;20189;-72
2021/12/08 07:35:24;;;;;;;0.50;0.40;;;4.50;99.90;;;;;;4983184;28;20201;-72
2021/12/08 07:37:51;;;;;;;0.00;0.00;;;4.60;99.90;;;;;;5014575;28;20197;-72
2021/12/08 07:40:23;;;;;;;0.50;0.50;;;4.50;99.90;;;;;;5014725;28;20674;-72
2021/12/08 07:42:54;;;;;;;8.17;1.70;;;4.40;99.90;;;;;;5014144;28;20198;-72
2021/12/08 07:45:25;;;;;;;0.50;0.50;;;4.30;99.90;;;;;;4995057;28;20703;-71
2021/12/08 07:47:54;;;;;;;0.30;0.30;;;4.30;99.90;;;;;;4995388;28;20240;-72
2021/12/08 07:50:32;;;;;;;0.00;0.00;;;4.20;99.90;;;;;;4994738;28;20182;-71
2021/12/08 07:53:00;;;;;;;4.70;0.60;;;4.20;99.90;;;;;;4994768;28;20532;-72
2021/12/08 07:55:30;;;;;;;0.53;0.53;;;4.10;99.90;;;;;;4995037;28;20207;-72
2021/12/08 07:57:57;;;;;;;0.00;0.00;;;4.10;99.90;;;;;;4994567;28;20183;-72
2021/12/08 08:00:35;;;;;;;0.00;0.00;;;4.10;99.90;;;;;;4994878;28;20197;-71
2021/12/08 08:03:02;;;;;;;0.00;0.00;;;4.20;99.90;;;;;;4994874;28;20225;-72
2021/12/08 08:05:29;;;;;;;0.40;0.40;;;4.40;99.90;;;;;;4994722;28;20668;-71
2021/12/08 08:08:02;;;;;;;0.50;0.20;;;4.60;99.90;;;;;;4994506;28;20171;-72
2021/12/08 08:10:29;;;;;;;0.10;0.10;;;4.80;99.90;;;;;;4994745;28;20182;-72
2021/12/08 08:13:02;;;;;;;0.00;0.00;;;4.90;99.90;;;;;;4976545;28;20190;-71
2021/12/08 08:15:31;;;;;;;12.23;0.83;;;4.90;99.90;;;;;;4994301;28;20198;-72
2021/12/08 08:18:04;;;;;;;1.10;1.10;;;5.00;99.90;;;;;;4994285;28;20210;-72
2021/12/08 08:20:33;;;;;;;0.10;0.10;;;5.00;99.90;;;;;;4977200;28;20190;-72
2021/12/08 08:23:00;;;;;;;0.00;0.00;;;4.90;99.90;;;;;;4994217;28;20290;-71
2021/12/08 08:25:29;;;;;;;1.13;0.50;;;4.90;99.90;;;;;;4993593;28;20219;-71
2021/12/08 08:27:55;;;;;;;0.27;0.27;;;4.80;99.90;;;;;;4994072;28;20167;-71
2021/12/08 08:30:26;;;;;;;3.20;1.30;;;4.80;99.90;;;;;;4994514;28;20182;-72
2021/12/08 08:32:54;;;;;;;0.37;0.37;;;4.80;99.90;;;;;;4994948;28;20191;-72
2021/12/08 08:35:46;;;;;;;0.30;0.30;;;4.90;99.90;;;;;;5000015;28;20683;-72
2021/12/08 08:38:28;;;;;;;0.00;0.00;;;5.00;99.90;;;;;;5012986;28;20257;-72
2021/12/08 08:40:59;;;;;;;0.20;0.20;;;5.00;99.90;;;;;;5013864;28;20302;-72
2021/12/08 08:43:25;;;;;;;0.00;0.00;;;5.10;99.90;;;;;;5007335;28;20351;-72
2021/12/08 08:46:08;;;;;;;0.00;0.00;;;5.10;99.90;;;;;;4976295;28;20262;-71
2021/12/08 08:48:41;;;;;;;0.00;0.00;;;5.10;99.90;;;;;;4993907;28;20665;-72
2021/12/08 08:51:25;;;;;;;0.10;0.10;;;5.20;99.90;;;;;;4994022;28;20179;-72
2021/12/08 08:53:55;;;;;;;0.10;0.10;;;5.20;99.90;;;;;;4993896;28;20206;-72
2021/12/08 08:56:28;;;;;;;0.63;0.63;;;5.20;99.90;;;;;;4993845;28;20187;-72
2021/12/08 08:58:58;;;;;;;0.00;0.00;;;5.20;99.90;;;;;;4993881;28;20712;-72
2021/12/08 09:01:34;;;;;;;0.60;0.60;;;5.30;99.90;;;;;;4993961;28;20171;-73
2021/12/08 09:04:13;;;;;;;1.40;0.73;;;5.30;99.90;;;;;;4992625;28;20206;-71
2021/12/08 09:06:43;;;;;;;0.10;0.10;;;5.40;99.90;;;;;;5006820;28;20186;-72
2021/12/08 09:09:14;;;;;;;0.00;0.00;;;5.40;99.90;;;;;;5003356;28;20267;-72
2021/12/08 09:11:48;;;;;;;0.10;0.10;;;5.50;99.90;;;;;;4993742;28;20210;-72
2021/12/08 09:14:40;;;;;;;0.10;0.10;;;5.50;99.90;;;;;;4975910;28;20202;-72
2021/12/08 09:17:12;;;;;;;0.10;0.10;;;5.50;99.90;;;;;;5006514;28;20184;-72
2021/12/08 09:19:43;;;;;;;0.10;0.10;;;5.60;99.90;;;;;;5003161;28;20232;-73
2021/12/08 09:22:19;;;;;;;0.10;0.10;;;5.60;99.90;;;;;;5014855;28;20202;-72
2021/12/08 09:25:12;;;;;;;0.00;0.00;;;5.60;99.90;;;;;;5006053;28;20221;-73
2021/12/08 09:27:43;;;;;;;0.87;0.40;;;5.70;99.90;;;;;;5000817;28;20199;-73
2021/12/08 09:30:17;;;;;;;4.40;3.80;;;5.70;99.90;;;;;;4993059;28;20199;-72
2021/12/08 09:32:59;;;;;;;0.87;0.73;;;5.70;99.90;;;;;;4992734;28;20187;-72
2021/12/08 09:35:30;;;;;;;0.10;0.10;;;5.80;99.90;;;;;;4999403;28;20198;-72
2021/12/08 09:38:00;;;;;;;0.07;0.07;;;5.80;99.90;;;;;;5011730;28;20170;-73
2021/12/08 09:40:33;;;;;;;0.10;0.10;;;5.90;99.90;;;;;;5012666;28;20273;-73
2021/12/08 09:43:11;;;;;;;0.47;0.47;;;5.90;99.90;;;;;;5009300;28;20680;-72
2021/12/08 09:45:43;;;;;;;3.03;1.60;;;6.00;99.90;;;;;;4992689;28;20522;-72
2021/12/08 09:48:10;;;;;;;0.23;0.23;;;6.00;99.90;;;;;;4992664;28;20266;-73
2021/12/08 09:50:36;;;;;;;1.27;1.27;;;6.00;99.90;;;;;;4992939;28;20664;-73
2021/12/08 09:53:03;;;;;;;0.27;0.27;;;6.10;99.90;;;;;;4992609;28;20191;-72
2021/12/08 09:55:29;;;;;;;0.47;0.47;;;6.20;99.90;;;;;;4992727;28;20203;-72
2021/12/08 09:57:55;;;;;;;0.10;0.10;;;6.20;99.90;;;;;;4992273;28;20708;-73
2021/12/08 10:00:33;;;;;;;0.77;0.77;;;6.20;99.90;;;;;;4992582;28;20270;-72
2021/12/08 10:03:00;;;;;;;0.00;0.00;;;6.30;99.90;;;;;;4992806;28;20219;-72
2021/12/08 10:05:29;;;;;;;1.27;1.17;;;6.30;99.90;;;;;;4992440;28;20191;-73
2021/12/08 10:07:55;;;;;;;0.00;0.00;;;6.40;99.90;;;;;;4992266;28;20175;-73
2021/12/08 10:10:28;;;;;;;0.00;0.00;;;6.40;99.90;;;;;;5134816;27;20604;-73
2021/12/08 10:12:54;;;;;;;2.93;1.37;;;6.50;99.90;;;;;;5129600;27;20271;-73
2021/12/08 10:15:23;;;;;;;0.00;0.00;;;6.50;99.90;;;;;;5110831;28;20199;-73
2021/12/08 10:17:49;;;;;;;0.03;0.03;;;6.50;99.90;;;;;;5108769;28;20559;-73
2021/12/08 10:20:20;;;;;;;4.50;0.97;;;6.50;99.90;;;;;;5107595;28;20189;-73
2021/12/08 10:22:49;;;;;;;0.23;0.23;;;6.60;99.90;;;;;;5107990;28;20262;-73
2021/12/08 10:25:22;;;;;;;0.47;0.47;;;6.60;99.90;;;;;;5107296;28;20747;-73
2021/12/08 10:28:25;;;;;;;1.83;1.30;;;6.60;99.90;;;;;;5107396;28;20181;-73
2021/12/08 10:31:00;;;;;;;0.10;0.10;;;6.60;99.90;;;;;;5107610;28;20232;-73
2021/12/08 10:33:45;;;;;;;0.10;0.10;;;6.60;99.90;;;;;;5108500;28;20641;-73
2021/12/08 10:36:23;;;;;;;0.10;0.10;;;6.60;99.90;;;;;;5108455;28;20265;-73
2021/12/08 10:38:49;;;;;;;0.30;0.30;;;6.70;99.90;;;;;;5109162;28;20626;-73
2021/12/08 10:41:14;;;;;;;0.10;0.10;;;6.70;99.90;;;;;;5116055;28;20214;-73
2021/12/08 10:43:40;;;;;;;2.30;0.67;;;6.70;99.90;;;;;;5103904;28;20209;-73
2021/12/08 10:46:08;;;;;;;0.00;0.00;;;6.70;99.90;;;;;;5118770;28;20231;-73
2021/12/08 10:48:43;;;;;;;0.10;0.10;;;6.70;99.90;;;;;;5108136;28;20592;-73
2021/12/08 10:54:26;;;;;;;0.97;0.97;;;6.70;99.90;;;;;;5108210;28;20198;-73
2021/12/08 10:56:56;;;;;;;6.47;0.77;;;6.70;99.90;;;;;;5105364;28;20178;-73
2021/12/08 10:59:26;;;;;;;0.10;0.10;;;6.80;99.90;;;;;;5108099;28;20210;-73
2021/12/08 11:01:53;;;;;;;0.73;0.67;;;6.80;99.90;;;;;;5108388;28;20199;-73
2021/12/08 11:04:31;;;;;;;0.13;0.13;;;6.80;99.90;;;;;;5108064;28;20199;-73
2021/12/08 11:07:08;;;;;;;0.10;0.10;;;6.80;99.90;;;;;;5108272;28;20266;-73
2021/12/08 11:09:42;;;;;;;0.10;0.10;;;6.80;99.90;;;;;;5087520;28;20215;-73
2021/12/08 11:12:08;;;;;;;0.10;0.10;;;6.90;99.90;;;;;;5087682;28;20176;-74
2021/12/08 11:14:48;;;;;;;0.33;0.33;;;6.90;99.90;;;;;;5087751;28;20214;-73
2021/12/08 11:17:25;;;;;;;0.40;0.40;;;6.90;99.90;;;;;;5087459;28;20271;-73
2021/12/08 11:20:18;;;;;;;0.10;0.10;;;7.00;99.90;;;;;;5085356;28;20195;-73
2021/12/08 11:22:47;;;;;;;0.07;0.07;;;6.90;99.90;;;;;;5082892;28;20650;-73
2021/12/08 11:25:30;;;;;;;0.10;0.10;;;6.90;99.90;;;;;;5093898;28;20637;-73
2021/12/08 11:27:59;;;;;;;15.47;1.57;;;7.00;99.90;;;;;;5093992;28;20293;-73
2021/12/08 11:30:28;;;;;;;0.40;0.40;;;7.00;99.90;;;;;;5093919;28;20203;-73
2021/12/08 11:33:19;;;;;;;0.00;0.00;;;7.10;99.90;;;;;;5094091;28;20198;-73
2021/12/08 11:35:46;;;;;;;0.60;0.40;;;7.10;99.90;;;;;;5083218;28;20191;-71
2021/12/08 11:38:13;;;;;;;0.00;0.00;;;7.20;99.90;;;;;;5093807;28;20168;-73
2021/12/08 11:40:39;;;;;;;0.10;0.10;;;7.20;99.90;;;;;;5094090;28;20172;-72
2021/12/08 11:43:13;;;;;;;0.00;0.00;;;7.20;99.90;;;;;;5093401;28;20176;-73
2021/12/08 11:45:40;;;;;;;0.00;0.00;;;7.30;99.90;;;;;;5094200;28;20193;-72
2021/12/08 11:48:25;;;;;;;0.10;0.10;;;7.30;99.90;;;;;;5092897;28;20190;-73
2021/12/08 11:51:07;;;;;;;0.30;0.30;;;7.30;99.90;;;;;;5093651;28;20184;-73
2021/12/08 11:53:37;;;;;;;0.50;0.50;;;7.20;99.90;;;;;;5093181;28;20206;-73
2021/12/08 11:56:04;;;;;;;0.00;0.00;;;7.30;99.90;;;;;;5092286;28;20618;-72
2021/12/08 11:58:29;;;;;;;0.60;0.60;;;7.30;99.90;;;;;;5091067;28;20278;-73
2021/12/08 12:00:55;;;;;;;0.20;0.20;;;7.30;99.90;;;;;;5092965;28;20211;-72
2021/12/08 12:03:21;;;;;;;0.40;0.40;;;7.30;99.90;;;;;;5092539;28;20662;-72
2021/12/08 12:05:48;;;;;;;0.00;0.00;;;7.30;99.90;;;;;;5085151;28;20188;-71
2021/12/08 12:08:17;;;;;;;0.17;0.17;;;7.30;99.90;;;;;;5087549;28;20240;-72
2021/12/08 12:10:47;;;;;;;0.27;0.27;;;7.40;99.90;;;;;;5092652;28;20649;-72
2021/12/08 12:13:13;;;;;;;0.00;0.00;;;7.40;99.90;;;;;;5093135;28;20720;-72
2021/12/08 12:15:50;;;;;;;0.10;0.10;;;7.40;99.90;;;;;;5092528;28;20186;-73
2021/12/08 12:18:21;;;;;;;0.60;0.60;;;7.60;99.90;;;;;;5093046;28;20202;-72
2021/12/08 12:20:51;;;;;;;0.30;0.30;;;7.60;99.90;;;;;;5091315;28;20183;-72
2021/12/08 12:23:44;;;;;;;9.80;1.20;;;7.70;99.90;;;;;;5092498;28;20957;-73
2021/12/08 12:26:39;;;;;;;0.00;0.00;;;7.70;99.90;;;;;;5091429;28;20570;-73
2021/12/08 12:29:18;;;;;;;0.10;0.10;;;7.70;99.90;;;;;;5092795;28;20689;-71
2021/12/08 12:32:02;;;;;;;0.50;0.50;;;7.60;99.90;;;;;;5092257;28;20184;-70
2021/12/08 12:34:34;;;;;;;0.00;0.00;;;7.60;99.90;;;;;;5094172;28;20263;-72
2021/12/08 12:37:05;;;;;;;0.47;0.47;;;7.70;99.90;;;;;;5092340;28;20179;-71
2021/12/08 12:39:31;;;;;;;0.00;0.00;;;7.70;99.90;;;;;;5093090;28;20698;-72
2021/12/08 12:42:11;;;;;;;0.27;0.27;;;7.70;99.90;;;;;;5092870;28;20184;-72
2021/12/08 12:44:40;;;;;;;0.20;0.20;;;7.70;99.90;;;;;;5092942;28;20200;-72
2021/12/08 12:47:09;;;;;;;0.10;0.10;;;7.60;99.90;;;;;;5092177;28;20191;-72
2021/12/08 12:49:41;;;;;;;0.00;0.00;;;7.50;99.90;;;;;;5092646;28;20211;-71
2021/12/08 12:52:10;;;;;;;0.43;0.43;;;7.50;99.90;;;;;;5092615;28;20244;-72
2021/12/08 12:54:39;;;;;;;0.10;0.10;;;7.50;99.90;;;;;;5092872;28;20211;-72
2021/12/08 12:57:06;;;;;;;0.00;0.00;;;7.60;99.90;;;;;;5091064;28;20271;-72
2021/12/08 12:59:52;;;;;;;0.10;0.10;;;7.60;99.90;;;;;;5092526;28;20250;-72
2021/12/08 13:02:27;;;;;;;0.77;0.77;;;7.60;99.90;;;;;;5092550;28;20180;-72
2021/12/08 13:04:57;;;;;;;0.10;0.10;;;7.70;99.90;;;;;;5092387;28;20229;-72
2021/12/08 13:07:25;;;;;;;0.63;0.60;;;7.60;99.90;;;;;;5091116;28;20516;-72
2021/12/08 13:09:54;;;;;;;0.10;0.10;;;7.60;99.90;;;;;;5092194;28;20222;-73
2021/12/08 13:12:35;;;;;;;0.37;0.37;;;7.60;99.90;;;;;;5092606;28;20188;-72
2021/12/08 13:15:19;;;;;;;2.00;1.90;;;7.60;99.90;;;;;;5092495;28;20196;-72
2021/12/08 13:18:07;;;;;;;0.10;0.10;;;7.60;99.90;;;;;;5071716;28;20233;-72
2021/12/08 13:20:43;;;;;;;0.10;0.10;;;7.70;99.90;;;;;;5084622;28;20667;-72
2021/12/08 13:23:14;;;;;;;0.10;0.10;;;7.80;99.90;;;;;;5097968;28;20655;-72
2021/12/08 13:25:46;;;;;;;0.10;0.10;;;7.80;99.90;;;;;;5090405;28;20190;-71
2021/12/08 13:28:30;;;;;;;0.10;0.10;;;8.00;99.90;;;;;;5091776;28;20533;-72
2021/12/08 13:31:20;;;;;;;0.60;0.57;;;8.10;99.90;;;;;;5091948;28;20192;-72
2021/12/08 13:33:52;;;;;;;0.63;0.63;;;8.30;99.90;;;;;;5091552;28;20192;-72
2021/12/08 13:36:20;;;;;;;1.60;1.50;;;8.40;99.90;;;;;;5089276;28;20254;-72
2021/12/08 13:38:58;;;;;;;0.10;0.10;;;8.90;99.90;;;;;;5091942;28;20241;-72
2021/12/08 13:41:29;;;;;;;0.20;0.20;;;9.50;99.90;;;;;;5090198;28;20191;-72
2021/12/08 13:43:56;;;;;;;2.33;1.03;;;9.80;99.90;;;;;;5091349;28;20211;-72
2021/12/08 13:46:36;;;;;;;0.10;0.10;;;9.70;99.90;;;;;;5091098;28;20585;-72
2021/12/08 13:49:17;;;;;;;0.10;0.10;;;9.50;99.90;;;;;;5090197;28;20697;-72
2021/12/08 13:52:06;;;;;;;0.53;0.30;;;9.20;99.90;;;;;;5071436;28;20267;-72
2021/12/08 13:54:46;;;;;;;0.20;0.20;;;9.10;99.90;;;;;;5083468;28;20848;-72
2021/12/08 13:57:31;;;;;;;0.40;0.40;;;8.80;99.90;;;;;;5089824;28;20270;-71
2021/12/08 13:59:58;;;;;;;0.43;0.43;;;8.60;99.90;;;;;;5070274;28;20627;-72
2021/12/08 14:02:37;;;;;;;0.00;0.00;;;8.30;99.90;;;;;;5069672;28;20180;-72
2021/12/08 14:05:08;;;;;;;4.73;0.30;;;8.10;99.90;;;;;;5071111;28;20285;-72
2021/12/08 14:07:36;;;;;;;0.00;0.00;;;8.00;99.90;;;;;;5070976;28;20184;-71